createdAt,value
2022-12-18T00:00:08.177Z,97.68
2022-12-18T00:00:45.899Z,100.40
2022-12-18T00:01:25.969Z,94.14
2022-12-18T00:02:00.594Z,104.78
2022-12-18T00:02:32.897Z,109.00
2022-12-18T00:03:04.725Z,97.64
2022-12-18T00:03:37.188Z,94.40
2022-12-18T00:04:17.747Z,93.72
2022-12-18T00:04:49.384Z,90.45
2022-12-18T00:05:20.915Z,93.92
2022-12-18T00:05:53.237Z,100.50
2022-12-18T00:06:26.003Z,96.74
2022-12-18T00:06:57.858Z,100.24
2022-12-18T00:07:29.500Z,91.96
2022-12-18T00:08:01.121Z,99.88
2022-12-18T00:08:33.578Z,91.02
2022-12-18T00:09:05.075Z,89.30
2022-12-18T00:09:40.034Z,90.74
2022-12-18T00:10:12.096Z,94.96
2022-12-18T00:10:51.180Z,98.08
2022-12-18T00:11:26.842Z,97.82
2022-12-18T00:11:58.406Z,92.26
2022-12-18T00:12:30.493Z,88.56
2022-12-18T00:13:05.182Z,93.14
2022-12-18T00:13:40.638Z,96.34
2022-12-18T00:14:13.774Z,91.74
2022-12-18T00:14:45.391Z,94.22
2022-12-18T00:15:16.971Z,94.74
2022-12-18T00:15:48.561Z,91.98
2022-12-18T00:16:22.441Z,90.12
2022-12-18T00:16:54.077Z,78.88
2022-12-18T00:17:25.696Z,88.78
2022-12-18T00:17:57.206Z,91.62
2022-12-18T00:18:28.685Z,92.68
2022-12-18T00:19:01.090Z,81.24
2022-12-18T00:19:32.640Z,84.22
2022-12-18T00:20:04.717Z,90.00
2022-12-18T00:20:42.935Z,83.48
2022-12-18T00:21:15.400Z,88.88
2022-12-18T00:21:46.987Z,86.40
2022-12-18T00:22:18.499Z,91.10
2022-12-18T00:22:53.321Z,81.52
2022-12-18T00:23:24.802Z,91.96
2022-12-18T00:23:56.318Z,93.76
2022-12-18T00:24:27.892Z,86.44
2022-12-18T00:24:59.398Z,91.10
2022-12-18T00:25:30.971Z,76.66
2022-12-18T00:26:04.533Z,90.96
2022-12-18T00:26:37.581Z,82.58
2022-12-18T00:27:10.193Z,98.00
2022-12-18T00:27:41.698Z,82.64
2022-12-18T00:28:13.201Z,91.90
2022-12-18T00:28:45.140Z,86.18
2022-12-18T00:29:16.710Z,93.46
2022-12-18T00:29:49.226Z,106.76
2022-12-18T00:30:20.907Z,98.86
2022-12-18T00:30:52.529Z,98.86
2022-12-18T00:31:25.517Z,93.24
2022-12-18T00:31:58.579Z,98.60
2022-12-18T00:32:30.440Z,96.20
2022-12-18T00:33:03.113Z,102.50
2022-12-18T00:33:35.239Z,96.68
2022-12-18T00:34:07.055Z,93.40
2022-12-18T00:34:38.554Z,86.94
2022-12-18T00:35:10.086Z,88.34
2022-12-18T00:35:41.599Z,96.52
2022-12-18T00:36:14.082Z,100.24
2022-12-18T00:36:48.567Z,100.28
2022-12-18T00:37:20.534Z,97.06
2022-12-18T00:37:56.183Z,98.64
2022-12-18T00:38:28.757Z,97.90
2022-12-18T00:39:01.619Z,95.82
2022-12-18T00:39:33.274Z,92.64
2022-12-18T00:40:05.534Z,91.40
2022-12-18T00:40:37.237Z,91.26
2022-12-18T00:41:09.666Z,85.86
2022-12-18T00:42:00.076Z,86.48
2022-12-18T00:42:50.113Z,88.44
2022-12-18T00:43:21.841Z,78.80
2022-12-18T00:43:53.563Z,81.78
2022-12-18T00:44:25.087Z,84.76
2022-12-18T00:44:56.564Z,88.26
2022-12-18T00:45:31.836Z,79.34
2022-12-18T00:46:04.065Z,95.86
2022-12-18T00:46:37.062Z,95.38
2022-12-18T00:47:08.661Z,93.20
2022-12-18T00:47:41.256Z,78.98
2022-12-18T00:48:12.795Z,88.12
2022-12-18T00:48:44.473Z,86.32
2022-12-18T00:49:18.819Z,77.08
2022-12-18T00:49:51.251Z,78.96
2022-12-18T00:50:24.703Z,82.90
2022-12-18T00:50:56.200Z,88.08
2022-12-18T00:51:28.223Z,75.90
2022-12-18T00:51:59.853Z,79.08
2022-12-18T00:52:31.360Z,81.08
2022-12-18T00:53:02.875Z,83.86
2022-12-18T00:53:34.340Z,85.86
2022-12-18T00:54:05.910Z,86.24
2022-12-18T00:54:37.433Z,89.44
2022-12-18T00:55:09.418Z,86.24
2022-12-18T00:55:41.845Z,93.76
2022-12-18T00:56:13.367Z,82.32
2022-12-18T00:56:49.366Z,88.22
2022-12-18T00:57:21.597Z,90.62
2022-12-18T00:57:53.576Z,92.18
2022-12-18T00:58:25.098Z,87.58
2022-12-18T00:58:57.733Z,97.76
2022-12-18T00:59:29.309Z,88.42
2022-12-18T01:00:00.868Z,93.10
2022-12-18T01:00:32.464Z,89.00
2022-12-18T01:01:08.261Z,90.22
2022-12-18T01:01:40.137Z,96.08
2022-12-18T01:02:14.530Z,88.64
2022-12-18T01:02:46.183Z,98.24
2022-12-18T01:03:18.088Z,104.72
2022-12-18T01:03:49.751Z,85.68
2022-12-18T01:04:21.579Z,90.08
2022-12-18T01:04:53.146Z,90.64
2022-12-18T01:05:25.407Z,99.66
2022-12-18T01:05:57.932Z,95.16
2022-12-18T01:06:29.661Z,88.68
2022-12-18T01:07:01.467Z,92.72
2022-12-18T01:07:33.032Z,92.22
2022-12-18T01:08:04.806Z,100.14
2022-12-18T01:08:36.885Z,100.92
2022-12-18T01:09:08.742Z,103.56
2022-12-18T01:09:41.927Z,89.46
2022-12-18T01:10:19.491Z,88.84
2022-12-18T01:10:50.983Z,98.84
2022-12-18T01:11:23.293Z,95.94
2022-12-18T01:11:54.807Z,88.58
2022-12-18T01:12:26.307Z,106.94
2022-12-18T01:12:57.918Z,96.50
2022-12-18T01:13:29.401Z,96.04
2022-12-18T01:14:01.117Z,97.84
2022-12-18T01:14:32.640Z,84.74
2022-12-18T01:15:06.230Z,96.70
2022-12-18T01:15:37.909Z,97.76
2022-12-18T01:16:12.603Z,99.96
2022-12-18T01:16:44.527Z,93.66
2022-12-18T01:17:17.342Z,88.96
2022-12-18T01:17:49.147Z,95.48
2022-12-18T01:18:20.660Z,81.08
2022-12-18T01:18:54.622Z,108.62
2022-12-18T01:19:26.314Z,106.06
2022-12-18T01:19:57.824Z,97.22
2022-12-18T01:20:29.357Z,95.06
2022-12-18T01:21:00.906Z,93.16
2022-12-18T01:21:32.439Z,99.00
2022-12-18T01:22:08.799Z,95.66
2022-12-18T01:22:40.794Z,92.04
2022-12-18T01:23:12.708Z,93.16
2022-12-18T01:23:47.426Z,90.64
2022-12-18T01:24:18.927Z,105.84
2022-12-18T01:24:51.302Z,88.06
2022-12-18T01:25:22.948Z,90.10
2022-12-18T01:25:55.886Z,100.90
2022-12-18T01:26:30.404Z,92.66
2022-12-18T01:27:02.213Z,94.80
2022-12-18T01:27:34.504Z,94.84
2022-12-18T01:28:08.414Z,93.84
2022-12-18T01:28:41.095Z,93.96
2022-12-18T01:29:12.794Z,92.58
2022-12-18T01:29:44.397Z,86.24
2022-12-18T01:30:16.033Z,88.18
2022-12-18T01:30:47.568Z,90.20
2022-12-18T01:31:27.555Z,84.44
2022-12-18T01:31:59.708Z,70.70
2022-12-18T01:32:32.100Z,86.90
2022-12-18T01:33:05.758Z,79.02
2022-12-18T01:33:37.476Z,85.38
2022-12-18T01:34:11.399Z,80.44
2022-12-18T01:34:42.983Z,83.36
2022-12-18T01:35:15.627Z,92.16
2022-12-18T01:35:47.135Z,83.94
2022-12-18T01:36:21.978Z,74.80
2022-12-18T01:36:53.561Z,80.92
2022-12-18T01:37:25.406Z,73.60
2022-12-18T01:37:56.972Z,85.22
2022-12-18T01:38:29.410Z,87.70
2022-12-18T01:39:10.355Z,72.62
2022-12-18T01:40:44.867Z,71.14
2022-12-18T01:41:20.560Z,91.16
2022-12-18T01:42:07.017Z,83.76
2022-12-18T01:42:38.577Z,84.92
2022-12-18T01:43:10.356Z,75.42
2022-12-18T01:43:58.306Z,78.36
2022-12-18T01:44:57.457Z,80.32
2022-12-18T01:45:32.081Z,81.14
2022-12-18T01:46:04.258Z,79.70
2022-12-18T01:46:36.201Z,81.46
2022-12-18T01:47:07.832Z,81.94
2022-12-18T01:47:51.146Z,85.84
2022-12-18T01:48:22.671Z,94.52
2022-12-18T01:49:02.324Z,78.92
2022-12-18T01:49:33.806Z,88.44
2022-12-18T01:50:09.874Z,88.56
2022-12-18T01:50:43.375Z,84.38
2022-12-18T01:51:15.765Z,82.14
2022-12-18T01:51:47.319Z,89.80
2022-12-18T01:52:20.086Z,82.60
2022-12-18T01:52:55.254Z,85.42
2022-12-18T01:53:26.792Z,77.76
2022-12-18T01:54:00.572Z,73.80
2022-12-18T01:54:32.062Z,88.28
2022-12-18T01:55:05.570Z,82.52
2022-12-18T01:55:52.486Z,92.62
2022-12-18T01:56:24.045Z,75.40
2022-12-18T01:56:55.585Z,90.44
2022-12-18T01:57:28.174Z,81.20
2022-12-18T01:58:00.639Z,79.32
2022-12-18T01:58:38.240Z,82.24
2022-12-18T01:59:11.709Z,81.66
2022-12-18T01:59:44.356Z,78.24
2022-12-18T02:00:18.687Z,73.06
2022-12-18T02:00:50.256Z,82.54
2022-12-18T02:01:25.343Z,66.32
2022-12-18T02:01:57.719Z,82.04
2022-12-18T02:02:30.310Z,85.02
2022-12-18T02:03:02.839Z,86.02
2022-12-18T02:03:34.518Z,91.50
2022-12-18T02:04:26.285Z,88.72
2022-12-18T02:04:58.152Z,76.70
2022-12-18T02:05:38.259Z,78.78
2022-12-18T02:06:18.286Z,78.70
2022-12-18T02:07:33.318Z,70.72
2022-12-18T02:08:12.086Z,79.36
2022-12-18T02:08:44.416Z,80.40
2022-12-18T02:09:21.012Z,76.96
2022-12-18T02:10:18.737Z,74.84
2022-12-18T02:11:02.062Z,78.18
2022-12-18T02:11:45.622Z,83.22
2022-12-18T02:12:25.975Z,79.50
2022-12-18T02:13:22.033Z,88.20
2022-12-18T02:13:56.218Z,67.52
2022-12-18T02:14:27.807Z,75.46
2022-12-18T02:15:14.184Z,70.52
2022-12-18T02:16:27.555Z,71.62
2022-12-18T02:16:59.093Z,72.82
2022-12-18T02:17:39.411Z,79.66
2022-12-18T02:18:28.654Z,71.20
2022-12-18T02:19:08.000Z,77.90
2022-12-18T02:19:48.570Z,73.48
2022-12-18T02:20:34.877Z,72.85
2022-12-18T02:21:24.935Z,74.18
2022-12-18T02:22:21.045Z,74.80
2022-12-18T02:22:58.400Z,75.26
2022-12-18T02:23:57.710Z,78.26
2022-12-18T02:24:37.444Z,77.38
2022-12-18T02:25:11.677Z,71.56
2022-12-18T02:26:02.254Z,81.26
2022-12-18T02:26:48.222Z,80.07
2022-12-18T02:27:19.961Z,82.54
2022-12-18T02:27:52.093Z,86.52
2022-12-18T02:28:29.584Z,84.94
2022-12-18T02:29:08.122Z,81.04
2022-12-18T02:29:58.518Z,75.50
2022-12-18T02:30:35.105Z,70.58
2022-12-18T02:31:09.999Z,79.90
2022-12-18T02:31:45.749Z,78.68
2022-12-18T02:32:23.012Z,72.90
2022-12-18T02:32:55.820Z,75.60
2022-12-18T02:33:28.781Z,82.70
2022-12-18T02:34:03.950Z,74.34
2022-12-18T02:34:41.249Z,75.86
2022-12-18T02:35:22.321Z,77.64
2022-12-18T02:35:58.169Z,64.26
2022-12-18T02:36:33.409Z,71.94
2022-12-18T02:37:08.903Z,74.48
2022-12-18T02:37:41.495Z,68.46
2022-12-18T02:38:13.525Z,73.34
2022-12-18T02:38:46.921Z,69.34
2022-12-18T02:39:22.786Z,67.50
2022-12-18T02:40:04.710Z,81.48
2022-12-18T02:40:39.138Z,67.44
2022-12-18T02:41:15.249Z,63.58
2022-12-18T02:41:47.663Z,71.86
2022-12-18T02:42:19.726Z,69.50
2022-12-18T02:42:53.189Z,66.56
2022-12-18T02:43:25.389Z,78.50
2022-12-18T02:44:02.581Z,75.36
2022-12-18T02:44:44.316Z,69.22
2022-12-18T02:45:15.947Z,62.78
2022-12-18T02:45:56.062Z,71.18
2022-12-18T02:46:36.706Z,64.20
2022-12-18T02:47:15.077Z,72.60
2022-12-18T02:47:50.067Z,67.74
2022-12-18T02:48:33.932Z,61.02
2022-12-18T02:49:17.349Z,74.16
2022-12-18T02:50:09.556Z,69.78
2022-12-18T02:50:46.839Z,70.08
2022-12-18T02:51:32.192Z,69.36
2022-12-18T02:52:13.963Z,66.82
2022-12-18T02:52:57.870Z,70.85
2022-12-18T02:53:38.463Z,79.64
2022-12-18T02:54:19.321Z,75.86
2022-12-18T02:55:08.879Z,73.20
2022-12-18T02:55:57.902Z,66.74
2022-12-18T02:56:37.639Z,72.26
2022-12-18T02:57:19.381Z,72.10
2022-12-18T02:57:58.509Z,69.08
2022-12-18T02:58:44.948Z,74.46
2022-12-18T02:59:49.513Z,73.34
2022-12-18T03:00:29.990Z,70.30
2022-12-18T03:01:10.257Z,74.35
2022-12-18T03:01:53.372Z,72.94
2022-12-18T03:02:38.568Z,69.62
2022-12-18T03:03:37.694Z,77.58
2022-12-18T03:04:24.398Z,77.34
2022-12-18T03:05:22.410Z,69.04
2022-12-18T03:05:58.840Z,68.42
2022-12-18T03:06:37.073Z,71.26
2022-12-18T03:07:15.641Z,82.76
2022-12-18T03:07:54.067Z,62.10
2022-12-18T03:08:28.994Z,74.52
2022-12-18T03:09:09.403Z,73.32
2022-12-18T03:09:47.594Z,79.28
2022-12-18T03:10:22.930Z,67.64
2022-12-18T03:11:04.212Z,71.92
2022-12-18T03:11:59.786Z,69.04
2022-12-18T03:12:34.174Z,74.96
2022-12-18T03:13:07.653Z,72.28
2022-12-18T03:13:45.596Z,66.40
2022-12-18T03:14:21.256Z,79.30
2022-12-18T03:15:06.048Z,79.28
2022-12-18T03:15:40.507Z,63.08
2022-12-18T03:16:23.418Z,73.08
2022-12-18T03:16:58.908Z,60.88
2022-12-18T03:17:32.566Z,70.68
2022-12-18T03:18:07.846Z,63.44
2022-12-18T03:19:02.232Z,66.68
2022-12-18T03:19:35.232Z,70.14
2022-12-18T03:20:13.469Z,68.02
2022-12-18T03:20:47.212Z,69.92
2022-12-18T03:21:28.078Z,66.14
2022-12-18T03:22:03.289Z,71.16
2022-12-18T03:22:44.320Z,68.72
2022-12-18T03:23:26.130Z,69.12
2022-12-18T03:23:59.012Z,69.56
2022-12-18T03:24:32.623Z,71.16
2022-12-18T03:25:07.728Z,62.28
2022-12-18T03:25:42.564Z,71.76
2022-12-18T03:26:17.171Z,69.76
2022-12-18T03:26:52.397Z,76.32
2022-12-18T03:27:25.911Z,64.76
2022-12-18T03:28:00.794Z,69.16
2022-12-18T03:28:35.473Z,73.10
2022-12-18T03:29:14.999Z,62.98
2022-12-18T03:29:50.161Z,71.70
2022-12-18T03:30:27.702Z,69.40
2022-12-18T03:31:01.540Z,64.44
2022-12-18T03:31:36.743Z,64.04
2022-12-18T03:32:32.255Z,74.12
2022-12-18T03:33:12.243Z,62.78
2022-12-18T03:33:56.703Z,64.82
2022-12-18T03:34:36.975Z,75.44
2022-12-18T03:35:13.044Z,62.56
2022-12-18T03:35:45.316Z,60.64
2022-12-18T03:36:18.406Z,62.36
2022-12-18T03:36:50.098Z,61.62
2022-12-18T03:37:23.716Z,62.24
2022-12-18T03:37:57.563Z,66.84
2022-12-18T03:38:32.009Z,75.96
2022-12-18T03:39:03.774Z,65.08
2022-12-18T03:39:39.279Z,79.44
2022-12-18T03:40:11.279Z,63.82
2022-12-18T03:40:56.214Z,66.34
2022-12-18T03:41:34.768Z,60.52
2022-12-18T03:42:52.302Z,57.26
2022-12-18T03:44:02.138Z,54.78
2022-12-18T03:44:41.447Z,61.88
2022-12-18T03:45:28.137Z,67.78
2022-12-18T03:46:07.950Z,57.74
2022-12-18T03:47:01.963Z,68.07
2022-12-18T03:48:03.971Z,61.72
2022-12-18T03:48:46.431Z,58.84
2022-12-18T03:49:48.926Z,75.32
2022-12-18T03:50:23.891Z,69.74
2022-12-18T03:51:02.136Z,61.82
2022-12-18T03:51:51.530Z,59.78
2022-12-18T03:52:39.938Z,60.64
2022-12-18T03:53:33.349Z,57.34
2022-12-18T03:54:06.387Z,66.22
2022-12-18T03:54:47.428Z,67.38
2022-12-18T03:55:22.854Z,68.08
2022-12-18T03:56:01.296Z,62.82
2022-12-18T03:56:41.375Z,65.68
2022-12-18T03:57:22.348Z,66.16
2022-12-18T03:57:56.617Z,62.06
2022-12-18T03:58:29.979Z,61.10
2022-12-18T03:59:12.619Z,63.30
2022-12-18T03:59:45.342Z,73.78
2022-12-18T04:00:19.601Z,65.02
2022-12-18T04:01:03.941Z,67.38
2022-12-18T04:01:39.489Z,67.78
2022-12-18T04:02:11.641Z,65.48
2022-12-18T04:02:58.248Z,68.36
2022-12-18T04:03:40.318Z,66.08
2022-12-18T04:04:14.065Z,64.72
2022-12-18T04:04:51.643Z,59.52
2022-12-18T04:05:26.192Z,66.96
2022-12-18T04:06:00.116Z,63.74
2022-12-18T04:06:36.608Z,65.42
2022-12-18T04:07:08.594Z,62.90
2022-12-18T04:07:43.957Z,64.00
2022-12-18T04:08:16.206Z,58.90
2022-12-18T04:08:55.880Z,68.12
2022-12-18T04:09:31.460Z,63.14
2022-12-18T04:10:05.972Z,60.16
2022-12-18T04:10:38.132Z,63.34
2022-12-18T04:11:09.809Z,62.26
2022-12-18T04:11:44.726Z,66.28
2022-12-18T04:12:18.336Z,57.32
2022-12-18T04:12:56.815Z,59.60
2022-12-18T04:13:31.966Z,56.48
2022-12-18T04:14:07.332Z,57.32
2022-12-18T04:14:39.655Z,63.82
2022-12-18T04:15:13.998Z,57.28
2022-12-18T04:15:45.784Z,64.26
2022-12-18T04:16:20.154Z,58.70
2022-12-18T04:16:55.178Z,56.36
2022-12-18T04:17:32.686Z,59.94
2022-12-18T04:18:04.666Z,60.48
2022-12-18T04:18:43.256Z,53.18
2022-12-18T04:19:15.455Z,53.68
2022-12-18T04:19:49.302Z,67.60
2022-12-18T04:20:21.642Z,52.90
2022-12-18T04:20:53.343Z,52.78
2022-12-18T04:21:25.853Z,63.26
2022-12-18T04:21:58.294Z,55.08
2022-12-18T04:22:29.902Z,52.98
2022-12-18T04:23:04.451Z,54.40
2022-12-18T04:23:39.131Z,58.16
2022-12-18T04:24:10.932Z,53.64
2022-12-18T04:24:47.019Z,63.66
2022-12-18T04:25:30.059Z,56.80
2022-12-18T04:26:16.709Z,58.40
2022-12-18T04:27:07.607Z,52.42
2022-12-18T04:27:46.260Z,55.72
2022-12-18T04:28:19.276Z,52.40
2022-12-18T04:28:50.979Z,50.62
2022-12-18T04:29:22.538Z,52.74
2022-12-18T04:29:54.043Z,56.52
2022-12-18T04:30:25.529Z,57.28
2022-12-18T04:30:57.257Z,62.70
2022-12-18T04:31:29.311Z,58.52
2022-12-18T04:32:01.636Z,56.08
2022-12-18T04:32:35.505Z,57.02
2022-12-18T04:33:22.850Z,51.24
2022-12-18T04:33:54.472Z,55.24
2022-12-18T04:34:25.990Z,56.94
2022-12-18T04:34:58.883Z,58.80
2022-12-18T04:35:31.047Z,55.46
2022-12-18T04:36:02.690Z,50.22
2022-12-18T04:36:34.590Z,56.10
2022-12-18T04:37:06.235Z,47.30
2022-12-18T04:37:38.032Z,48.50
2022-12-18T04:38:13.386Z,52.82
2022-12-18T04:38:45.248Z,55.84
2022-12-18T04:39:20.258Z,50.52
2022-12-18T04:39:54.059Z,56.54
2022-12-18T04:40:32.097Z,55.68
2022-12-18T04:41:08.616Z,54.66
2022-12-18T04:41:40.884Z,50.18
2022-12-18T04:42:13.386Z,50.62
2022-12-18T04:42:44.921Z,58.94
2022-12-18T04:43:16.697Z,56.28
2022-12-18T04:43:48.348Z,57.82
2022-12-18T04:44:19.890Z,60.00
2022-12-18T04:44:54.038Z,57.90
2022-12-18T04:45:25.531Z,55.00
2022-12-18T04:46:07.468Z,56.34
2022-12-18T04:46:39.324Z,51.14
2022-12-18T04:47:10.995Z,60.64
2022-12-18T04:47:42.582Z,58.18
2022-12-18T04:48:14.087Z,59.18
2022-12-18T04:48:46.968Z,54.28
2022-12-18T04:49:18.560Z,61.24
2022-12-18T04:49:50.071Z,48.06
2022-12-18T04:50:21.552Z,61.52
2022-12-18T04:50:53.038Z,53.12
2022-12-18T04:51:26.783Z,56.88
2022-12-18T04:52:04.549Z,49.74
2022-12-18T04:52:38.935Z,48.75
2022-12-18T04:53:10.443Z,49.16
2022-12-18T04:53:42.245Z,49.92
2022-12-18T04:54:13.928Z,60.00
2022-12-18T04:54:45.431Z,56.10
2022-12-18T04:55:17.072Z,54.94
2022-12-18T04:55:48.550Z,57.66
2022-12-18T04:56:20.297Z,64.22
2022-12-18T04:56:51.866Z,54.00
2022-12-18T04:57:23.375Z,50.86
2022-12-18T04:57:55.136Z,59.30
2022-12-18T04:58:26.589Z,56.18
2022-12-18T04:58:58.438Z,50.84
2022-12-18T04:59:30.063Z,57.84
2022-12-18T05:00:01.816Z,53.16
2022-12-18T05:00:33.410Z,55.02
2022-12-18T05:01:04.934Z,54.96
2022-12-18T05:01:36.507Z,52.74
2022-12-18T05:02:08.504Z,49.36
2022-12-18T05:02:40.154Z,45.90
2022-12-18T05:03:11.842Z,52.24
2022-12-18T05:03:44.113Z,48.12
2022-12-18T05:04:16.098Z,54.92
2022-12-18T05:04:47.857Z,52.86
2022-12-18T05:05:19.353Z,54.56
2022-12-18T05:05:52.033Z,53.98
2022-12-18T05:06:23.535Z,53.46
2022-12-18T05:06:55.060Z,50.90
2022-12-18T05:07:26.683Z,52.58
2022-12-18T05:07:58.327Z,60.84
2022-12-18T05:08:29.915Z,51.22
2022-12-18T05:09:01.389Z,52.72
2022-12-18T05:09:32.911Z,48.58
2022-12-18T05:10:07.914Z,48.44
2022-12-18T05:10:39.470Z,50.70
2022-12-18T05:11:15.026Z,47.02
2022-12-18T05:11:47.898Z,56.26
2022-12-18T05:12:19.384Z,50.12
2022-12-18T05:13:00.360Z,50.54
2022-12-18T05:13:41.050Z,51.00
2022-12-18T05:14:12.934Z,50.92
2022-12-18T05:14:47.085Z,44.14
2022-12-18T05:15:18.543Z,51.52
2022-12-18T05:15:53.110Z,54.88
2022-12-18T05:16:24.870Z,47.26
2022-12-18T05:17:00.653Z,48.30
2022-12-18T05:17:32.704Z,52.26
2022-12-18T05:18:04.794Z,44.68
2022-12-18T05:18:36.329Z,47.32
2022-12-18T05:19:07.853Z,46.84
2022-12-18T05:19:39.409Z,54.54
2022-12-18T05:20:11.483Z,49.66
2022-12-18T05:20:43.024Z,49.20
2022-12-18T05:21:14.533Z,47.00
2022-12-18T05:21:46.042Z,49.88
2022-12-18T05:22:18.032Z,44.38
2022-12-18T05:22:49.548Z,44.42
2022-12-18T05:23:23.018Z,46.02
2022-12-18T05:23:54.610Z,45.20
2022-12-18T05:24:26.100Z,48.56
2022-12-18T05:24:57.632Z,53.96
2022-12-18T05:25:29.164Z,41.16
2022-12-18T05:26:02.775Z,43.86
2022-12-18T05:26:34.295Z,45.96
2022-12-18T05:27:05.856Z,46.38
2022-12-18T05:27:37.407Z,40.24
2022-12-18T05:28:08.917Z,39.68
2022-12-18T05:28:40.458Z,50.78
2022-12-18T05:29:13.280Z,40.62
2022-12-18T05:29:45.572Z,49.30
2022-12-18T05:30:17.446Z,42.74
2022-12-18T05:30:51.636Z,47.48
2022-12-18T05:31:23.410Z,47.42
2022-12-18T05:31:54.968Z,45.06
2022-12-18T05:32:26.529Z,46.74
2022-12-18T05:32:58.436Z,45.76
2022-12-18T05:33:32.977Z,47.42
2022-12-18T05:34:04.506Z,45.46
2022-12-18T05:34:36.222Z,46.60
2022-12-18T05:35:09.875Z,45.18
2022-12-18T05:35:41.422Z,49.56
2022-12-18T05:36:13.125Z,45.64
2022-12-18T05:36:44.674Z,43.62
2022-12-18T05:37:16.501Z,45.80
2022-12-18T05:37:48.000Z,51.52
2022-12-18T05:38:20.426Z,46.28
2022-12-18T05:38:51.909Z,45.14
2022-12-18T05:39:23.478Z,48.16
2022-12-18T05:39:54.967Z,47.58
2022-12-18T05:40:26.887Z,46.12
2022-12-18T05:40:59.779Z,48.96
2022-12-18T05:41:31.270Z,47.44
2022-12-18T05:42:02.776Z,49.66
2022-12-18T05:42:34.290Z,49.80
2022-12-18T05:43:05.774Z,40.20
2022-12-18T05:43:38.792Z,40.76
2022-12-18T05:44:10.551Z,39.36
2022-12-18T05:44:42.074Z,40.48
2022-12-18T05:45:13.563Z,43.00
2022-12-18T05:45:45.367Z,41.08
2022-12-18T05:46:25.298Z,43.00
2022-12-18T05:46:56.946Z,39.67
2022-12-18T05:47:29.666Z,44.90
2022-12-18T05:48:01.194Z,42.86
2022-12-18T05:48:32.741Z,44.90
2022-12-18T05:49:04.325Z,42.48
2022-12-18T05:49:35.817Z,38.94
2022-12-18T05:50:08.220Z,42.92
2022-12-18T05:50:41.302Z,40.48
2022-12-18T05:51:15.540Z,42.00
2022-12-18T05:51:47.171Z,47.06
2022-12-18T05:52:18.674Z,41.92
2022-12-18T05:52:50.211Z,38.80
2022-12-18T05:53:21.774Z,47.02
2022-12-18T05:53:53.290Z,43.38
2022-12-18T05:54:24.980Z,44.12
2022-12-18T05:54:56.483Z,37.18
2022-12-18T05:55:27.968Z,40.68
2022-12-18T05:56:03.701Z,44.90
2022-12-18T05:56:35.255Z,39.22
2022-12-18T05:57:06.863Z,47.24
2022-12-18T05:57:38.342Z,45.02
2022-12-18T05:58:10.930Z,42.06
2022-12-18T05:58:42.789Z,42.44
2022-12-18T05:59:14.415Z,40.98
2022-12-18T05:59:45.963Z,46.28
2022-12-18T06:00:17.667Z,42.12
2022-12-18T06:00:49.156Z,41.92
2022-12-18T06:01:24.645Z,41.44
2022-12-18T06:01:56.274Z,35.74
2022-12-18T06:02:27.944Z,48.56
2022-12-18T06:03:00.440Z,41.82
2022-12-18T06:03:34.079Z,39.02
2022-12-18T06:04:05.823Z,41.60
2022-12-18T06:04:38.370Z,37.06
2022-12-18T06:05:10.123Z,46.24
2022-12-18T06:05:44.870Z,42.22
2022-12-18T06:06:22.320Z,39.60
2022-12-18T06:06:53.861Z,36.64
2022-12-18T06:07:25.425Z,43.54
2022-12-18T06:07:56.915Z,37.34
2022-12-18T06:08:28.483Z,43.58
2022-12-18T06:09:00.184Z,44.36
2022-12-18T06:09:31.739Z,41.36
2022-12-18T06:10:03.463Z,43.08
2022-12-18T06:10:35.205Z,37.30
2022-12-18T06:11:06.687Z,39.80
2022-12-18T06:11:38.758Z,42.82
2022-12-18T06:12:10.366Z,44.44
2022-12-18T06:12:41.986Z,41.34
2022-12-18T06:13:13.631Z,39.00
2022-12-18T06:13:45.230Z,38.12
2022-12-18T06:14:18.202Z,44.14
2022-12-18T06:14:49.694Z,44.10
2022-12-18T06:15:21.187Z,38.12
2022-12-18T06:15:52.725Z,40.80
2022-12-18T06:16:24.322Z,46.22
2022-12-18T06:16:55.979Z,47.06
2022-12-18T06:17:31.440Z,47.10
2022-12-18T06:18:02.942Z,44.62
2022-12-18T06:18:35.062Z,44.54
2022-12-18T06:19:09.153Z,38.10
2022-12-18T06:19:40.660Z,38.12
2022-12-18T06:20:12.224Z,41.26
2022-12-18T06:20:43.962Z,46.08
2022-12-18T06:21:17.414Z,41.26
2022-12-18T06:21:50.192Z,37.64
2022-12-18T06:22:21.736Z,47.14
2022-12-18T06:22:53.357Z,41.38
2022-12-18T06:23:27.534Z,43.86
2022-12-18T06:23:59.787Z,45.28
2022-12-18T06:24:31.539Z,43.50
2022-12-18T06:25:03.354Z,42.16
2022-12-18T06:25:34.963Z,42.44
2022-12-18T06:26:08.348Z,47.18
2022-12-18T06:26:47.389Z,42.24
2022-12-18T06:27:18.922Z,44.18
2022-12-18T06:27:50.404Z,40.98
2022-12-18T06:28:22.247Z,44.64
2022-12-18T06:28:53.763Z,41.80
2022-12-18T06:29:26.518Z,51.20
2022-12-18T06:29:58.038Z,46.52
2022-12-18T06:30:29.671Z,46.66
2022-12-18T06:31:01.244Z,42.00
2022-12-18T06:31:32.888Z,37.68
2022-12-18T06:32:12.360Z,42.70
2022-12-18T06:32:43.937Z,43.98
2022-12-18T06:33:16.682Z,43.06
2022-12-18T06:33:49.292Z,42.70
2022-12-18T06:34:20.824Z,41.20
2022-12-18T06:34:52.573Z,37.54
2022-12-18T06:35:24.500Z,39.40
2022-12-18T06:36:04.640Z,42.34
2022-12-18T06:36:36.124Z,40.25
2022-12-18T06:37:08.976Z,44.88
2022-12-18T06:37:40.451Z,41.44
2022-12-18T06:38:12.012Z,42.84
2022-12-18T06:38:44.699Z,37.12
2022-12-18T06:39:16.220Z,38.46
2022-12-18T06:39:47.812Z,40.26
2022-12-18T06:40:19.631Z,55.00
2022-12-18T06:40:51.147Z,39.72
2022-12-18T06:41:23.008Z,44.54
2022-12-18T06:41:54.560Z,43.16
2022-12-18T06:42:26.137Z,39.60
2022-12-18T06:42:57.631Z,39.56
2022-12-18T06:43:29.223Z,39.16
2022-12-18T06:44:00.707Z,41.46
2022-12-18T06:44:32.341Z,38.90
2022-12-18T06:45:05.142Z,38.22
2022-12-18T06:45:36.753Z,43.98
2022-12-18T06:46:08.447Z,45.78
2022-12-18T06:46:40.069Z,43.44
2022-12-18T06:47:12.084Z,53.10
2022-12-18T06:47:43.904Z,40.88
2022-12-18T06:48:15.418Z,42.66
2022-12-18T06:48:52.871Z,43.24
2022-12-18T06:49:30.165Z,35.90
2022-12-18T06:50:04.949Z,37.96
2022-12-18T06:50:36.546Z,43.26
2022-12-18T06:51:08.090Z,37.16
2022-12-18T06:51:39.935Z,38.46
2022-12-18T06:52:11.517Z,38.10
2022-12-18T06:52:44.877Z,43.76
2022-12-18T06:53:16.573Z,43.48
2022-12-18T06:53:48.201Z,36.84
2022-12-18T06:54:19.778Z,44.24
2022-12-18T06:54:51.727Z,36.28
2022-12-18T06:55:23.302Z,44.42
2022-12-18T06:56:09.865Z,36.64
2022-12-18T06:56:42.394Z,37.52
2022-12-18T06:57:14.038Z,37.94
2022-12-18T06:57:45.549Z,38.70
2022-12-18T06:58:17.135Z,36.68
2022-12-18T06:58:51.889Z,41.46
2022-12-18T06:59:23.468Z,37.26
2022-12-18T06:59:55.102Z,41.86
2022-12-18T07:00:26.609Z,41.26
2022-12-18T07:01:05.778Z,42.02
2022-12-18T07:01:37.639Z,34.30
2022-12-18T07:02:13.108Z,37.56
2022-12-18T07:02:45.026Z,39.52
2022-12-18T07:03:16.617Z,42.84
2022-12-18T07:03:48.256Z,42.30
2022-12-18T07:04:19.933Z,38.70
2022-12-18T07:04:51.663Z,40.56
2022-12-18T07:05:25.072Z,37.64
2022-12-18T07:05:56.635Z,39.64
2022-12-18T07:06:28.140Z,38.84
2022-12-18T07:06:59.724Z,37.52
2022-12-18T07:07:31.230Z,40.34
2022-12-18T07:08:04.259Z,45.06
2022-12-18T07:08:35.767Z,42.14
2022-12-18T07:09:07.343Z,40.38
2022-12-18T07:09:46.274Z,38.90
2022-12-18T07:10:17.794Z,43.20
2022-12-18T07:10:56.028Z,43.06
2022-12-18T07:11:28.099Z,38.88
2022-12-18T07:11:59.608Z,41.22
2022-12-18T07:12:31.101Z,40.22
2022-12-18T07:13:02.657Z,40.26
2022-12-18T07:13:34.174Z,40.40
2022-12-18T07:14:05.837Z,38.00
2022-12-18T07:14:37.442Z,41.58
2022-12-18T07:15:09.345Z,45.70
2022-12-18T07:15:40.871Z,41.06
2022-12-18T07:16:20.910Z,42.10
2022-12-18T07:17:01.828Z,40.02
2022-12-18T07:17:33.386Z,40.54
2022-12-18T07:18:05.066Z,37.76
2022-12-18T07:18:38.775Z,35.00
2022-12-18T07:19:10.504Z,40.40
2022-12-18T07:19:42.242Z,35.52
2022-12-18T07:20:13.745Z,42.18
2022-12-18T07:20:45.228Z,38.84
2022-12-18T07:21:19.781Z,40.70
2022-12-18T07:21:52.022Z,39.24
2022-12-18T07:22:23.543Z,42.44
2022-12-18T07:22:56.467Z,33.80
2022-12-18T07:23:30.698Z,39.76
2022-12-18T07:24:02.366Z,36.36
2022-12-18T07:24:35.293Z,33.30
2022-12-18T07:25:08.237Z,33.54
2022-12-18T07:25:42.781Z,36.56
2022-12-18T07:26:15.638Z,43.20
2022-12-18T07:26:47.847Z,37.60
2022-12-18T07:27:19.451Z,37.22
2022-12-18T07:27:51.211Z,31.76
2022-12-18T07:28:22.686Z,38.80